Lester B. Pearson International Airport
CYYZ : now visible

Airfield :











YOU CAN JOIN US ON...

 
LOGIN :

Register | Disclaimer

   EN    FR    IT 

 









Legend :    VFR   Marginal VFR   IFR   Intensive IFR   Very Intensive IFR
Visi :
Ceiling :
>= 8 km
>= 3000ft
5 to 8 km
1000 to 3000 ft
1500m to 5 km
500 to 1000 ft
800 to 1500m
200 to 500 ft
< 800m
< 200 ft
Symbols :   Thunderstorms  Fog  Heavy snow  Heavy precipitations  Wind > 20 kt






- Airport Elevation : 569 ft
- IATA code : YYZ


CYYZ - Lester B. Pearson International

CURRENT METAR :
  • 260000Z 16005KT 150V210 15SM FEW060 FEW100 SCT150 SCT250 27/18 A3001 RMK CU1AC1AC2CI1 CU TR SLP160 DENSITY ALT 2000FT

EXPIRED METARs :
  • 252300Z 22008KT 15SM FEW060 SCT140 BKN240 28/17 A3000 RMK CU1AC2CI3 SLP159 DENSITY ALT 2100FT
  • 252200Z 15008KT 15SM FEW040CB SCT070 BKN130 BKN210 26/18 A3001 RMK CB1AC3AC1CI1 CB S SLP161 DENSITY ALT 2000FT

TAF TAF CYYZ
Valid from the 26 at 00:00 until the 27 at 06:00 UTC


252338Z 2600/2706 23008KT P6SM SCT240
BECMG 2603/2605 09005KT
FM261600 15012KT P6SM SCT050
TEMPO 2618/2623 P6SM VCTS BKN050CB
BECMG 2700/2702 09007KT RMK NXT FCST BY 260300Z
CZYZ FIR / North America



MET'MAP, your aeronautical weather chart ! - Copyright ORBIFLY December 2007 - Disclaimer

ORBIFLY MET'MAP TEAM :

Programming & Development : Alexandra Zaïnal
Concept & original design : Baudouin d'Aumeries
Assistance for programming : Marc-Olivier Méhu
Technical & hardware support : Manuel Goepfert

Contact : metmap@orbifly.com




SOURCES & CREDITS :

   NOAA       Earth
Advisory